Time;durP1;ratioP1;P1;durP2;ratioP2;P2;SDS_P1;SDS_P2;PMS_P1;PMS_P2;Temp;Humidity;BMP_temperature;BMP_pressure;BME280_temperature;BME280_humidity;BME280_pressure;Samples;Min_cycle;Max_cycle;Signal;HPM_P1;HPM_P2
2022/02/12 00:01:35;;;;;;;;;;;22.60;30.20;;;;;;5087340;28;20014;-62
2022/02/12 00:04:02;;;;;;;;;;;22.60;30.20;;;;;;5089387;28;20015;-62
2022/02/12 00:06:29;;;;;;;;;;;22.60;30.20;;;;;;5087268;28;19925;-62
2022/02/12 00:08:56;;;;;;;;;;;22.60;30.20;;;;;;5088383;28;19932;-62
2022/02/12 00:11:23;;;;;;;;;;;22.50;30.20;;;;;;5087522;28;20151;-62
2022/02/12 00:16:42;;;;;;;;;;;22.50;30.20;;;;;;5087531;28;19931;-62
2022/02/12 00:19:09;;;;;;;;;;;22.50;30.30;;;;;;5070612;28;20415;-62
2022/02/12 00:21:36;;;;;;;;;;;22.50;30.30;;;;;;5087243;28;20024;-62
2022/02/12 00:24:03;;;;;;;;;;;22.50;30.30;;;;;;5088432;28;20082;-62
2022/02/12 00:26:30;;;;;;;;;;;22.50;30.30;;;;;;5087298;28;20015;-62
2022/02/12 00:28:58;;;;;;;;;;;22.50;30.30;;;;;;5088367;28;19946;-62
2022/02/12 00:31:25;;;;;;;;;;;22.50;30.30;;;;;;5086994;28;20386;-62
2022/02/12 00:33:52;;;;;;;;;;;22.50;30.40;;;;;;5088431;28;19982;-62
2022/02/12 00:36:19;;;;;;;;;;;22.50;30.40;;;;;;5086879;28;19971;-62
2022/02/12 00:41:41;;;;;;;;;;;22.50;30.30;;;;;;5086590;28;19979;-62
2022/02/12 00:44:08;;;;;;;;;;;22.50;30.40;;;;;;5088503;28;19924;-62
2022/02/12 00:46:35;;;;;;;;;;;22.50;30.40;;;;;;5087561;28;20001;-62
2022/02/12 00:49:03;;;;;;;;;;;22.50;30.40;;;;;;5087860;28;20365;-62
2022/02/12 00:51:31;;;;;;;;;;;22.50;30.40;;;;;;5086936;28;19925;-62
2022/02/12 00:53:58;;;;;;;;;;;22.50;30.40;;;;;;5087636;28;20456;-62
2022/02/12 00:56:25;;;;;;;;;;;22.50;30.40;;;;;;5087182;28;19928;-62
2022/02/12 00:58:52;;;;;;;;;;;22.50;30.40;;;;;;5087908;28;20302;-62
2022/02/12 01:01:19;;;;;;;;;;;22.50;30.40;;;;;;5086751;28;19950;-62
2022/02/12 01:06:50;;;;;;;;;;;22.50;30.40;;;;;;5086349;28;20361;-66
2022/02/12 01:09:17;;;;;;;;;;;22.50;30.40;;;;;;5088155;28;19979;-62
2022/02/12 01:11:44;;;;;;;;;;;22.50;30.40;;;;;;5086232;28;19930;-62
2022/02/12 01:14:12;;;;;;;;;;;22.50;30.50;;;;;;5087961;28;19928;-62
2022/02/12 01:16:40;;;;;;;;;;;22.50;30.50;;;;;;5087007;28;19955;-62
2022/02/12 01:19:07;;;;;;;;;;;22.40;30.50;;;;;;5087492;28;20304;-62
2022/02/12 01:21:34;;;;;;;;;;;22.40;30.50;;;;;;5086689;28;19967;-62
2022/02/12 01:24:01;;;;;;;;;;;22.40;30.50;;;;;;5087328;28;19999;-62
2022/02/12 01:26:28;;;;;;;;;;;22.40;30.50;;;;;;5086182;28;19970;-62
2022/02/12 01:29:14;;;;;;;;;;;22.40;30.50;;;;;;5087583;28;19970;-62
2022/02/12 01:31:41;;;;;;;;;;;22.40;30.60;;;;;;5086078;28;20020;-62
2022/02/12 01:34:08;;;;;;;;;;;22.40;31.10;;;;;;5087692;28;19982;-62
2022/02/12 01:36:35;;;;;;;;;;;22.40;30.60;;;;;;5085842;28;19963;-62
2022/02/12 01:39:02;;;;;;;;;;;22.40;30.60;;;;;;5087654;28;20002;-62
2022/02/12 01:41:29;;;;;;;;;;;22.40;30.60;;;;;;5086429;28;19963;-62
2022/02/12 01:43:57;;;;;;;;;;;22.40;30.60;;;;;;5086898;28;19928;-62
2022/02/12 01:46:24;;;;;;;;;;;22.40;30.60;;;;;;5086772;28;19976;-62
2022/02/12 01:48:51;;;;;;;;;;;22.40;30.70;;;;;;5086565;28;19971;-62
2022/02/12 01:51:21;;;;;;;;;;;22.40;30.70;;;;;;5068684;28;20023;-62
2022/02/12 01:56:41;;;;;;;;;;;22.40;30.70;;;;;;5086030;28;19924;-62
2022/02/12 01:59:08;;;;;;;;;;;22.40;30.70;;;;;;5087551;28;19964;-62
2022/02/12 02:01:35;;;;;;;;;;;22.30;30.70;;;;;;5085617;28;20376;-62
2022/02/12 02:04:02;;;;;;;;;;;22.30;30.70;;;;;;5087330;28;20108;-62
2022/02/12 02:06:29;;;;;;;;;;;22.30;30.70;;;;;;5085327;28;19950;-62
2022/02/12 02:08:56;;;;;;;;;;;22.30;30.70;;;;;;5086891;28;19924;-62
2022/02/12 02:11:23;;;;;;;;;;;22.30;30.70;;;;;;5086526;28;19934;-62
2022/02/12 02:13:52;;;;;;;;;;;22.30;30.70;;;;;;5087663;28;20021;-62
2022/02/12 02:16:19;;;;;;;;;;;22.30;30.70;;;;;;5090234;28;20381;-62
2022/02/12 02:21:52;;;;;;;;;;;22.30;30.70;;;;;;5089839;28;20712;-62
2022/02/12 02:24:20;;;;;;;;;;;22.30;30.70;;;;;;5091000;28;20349;-62
2022/02/12 02:26:46;;;;;;;;;;;22.30;30.80;;;;;;5089364;28;20002;-62
2022/02/12 02:29:14;;;;;;;;;;;22.30;30.80;;;;;;5091061;28;19924;-62
2022/02/12 02:31:41;;;;;;;;;;;22.30;30.80;;;;;;5088840;28;20012;-62
2022/02/12 02:34:12;;;;;;;;;;;22.30;30.80;;;;;;5072844;28;19924;-62
2022/02/12 02:36:39;;;;;;;;;;;22.30;30.70;;;;;;5089101;28;20372;-62
2022/02/12 02:39:06;;;;;;;;;;;22.30;30.70;;;;;;5090762;28;20006;-63
2022/02/12 02:41:33;;;;;;;;;;;22.30;30.80;;;;;;5089246;28;19985;-62
2022/02/12 02:44:15;;;;;;;;;;;22.30;30.80;;;;;;5090234;28;19975;-62
2022/02/12 02:46:42;;;;;;;;;;;22.30;30.80;;;;;;5089253;28;19923;-62
2022/02/12 02:49:09;;;;;;;;;;;22.30;30.80;;;;;;5090631;28;20034;-62
2022/02/12 02:57:09;;;;;;;;;;;22.30;30.80;;;;;;5089169;28;19998;-62
2022/02/12 02:59:37;;;;;;;;;;;22.20;30.80;;;;;;5090629;28;19924;-62
2022/02/12 03:02:04;;;;;;;;;;;22.20;30.80;;;;;;5088569;28;20171;-62
2022/02/12 03:04:31;;;;;;;;;;;22.20;30.80;;;;;;5090346;28;19981;-62
2022/02/12 03:06:58;;;;;;;;;;;22.20;30.80;;;;;;5088626;28;20011;-62
2022/02/12 03:09:26;;;;;;;;;;;22.20;30.80;;;;;;5090281;28;19924;-62
2022/02/12 03:11:53;;;;;;;;;;;22.20;30.80;;;;;;5088455;28;19924;-62
2022/02/12 03:14:20;;;;;;;;;;;22.20;30.90;;;;;;5089959;28;19979;-62
2022/02/12 03:16:47;;;;;;;;;;;22.20;30.80;;;;;;5088360;28;19979;-62
2022/02/12 03:19:14;;;;;;;;;;;22.20;30.90;;;;;;5090062;28;20348;-63
2022/02/12 03:21:41;;;;;;;;;;;22.20;30.90;;;;;;5088705;28;20015;-62
2022/02/12 03:24:08;;;;;;;;;;;22.20;30.90;;;;;;5089894;28;20507;-62
2022/02/12 03:26:35;;;;;;;;;;;22.20;30.90;;;;;;5087368;28;19924;-62
2022/02/12 03:29:14;;;;;;;;;;;22.20;30.90;;;;;;5089635;28;19924;-62
2022/02/12 03:31:42;;;;;;;;;;;22.20;30.90;;;;;;5088200;28;19961;-62
2022/02/12 03:34:11;;;;;;;;;;;22.20;30.90;;;;;;5089927;28;19931;-62
2022/02/12 03:36:38;;;;;;;;;;;22.20;30.90;;;;;;5087807;28;19959;-62
2022/02/12 03:39:05;;;;;;;;;;;22.20;30.90;;;;;;5089611;28;19959;-62
2022/02/12 03:41:32;;;;;;;;;;;22.20;30.90;;;;;;5087819;28;19967;-62
2022/02/12 03:43:59;;;;;;;;;;;22.20;30.90;;;;;;5088982;28;19982;-62
2022/02/12 03:46:26;;;;;;;;;;;22.20;31.00;;;;;;5088228;28;20433;-62
2022/02/12 03:48:53;;;;;;;;;;;22.10;30.90;;;;;;5070929;28;20018;-62
2022/02/12 03:51:21;;;;;;;;;;;22.20;30.90;;;;;;5087944;28;19977;-62
2022/02/12 03:56:42;;;;;;;;;;;22.20;30.90;;;;;;5087583;28;20151;-62
2022/02/12 03:59:09;;;;;;;;;;;22.20;30.90;;;;;;5089276;28;20099;-62
2022/02/12 04:01:38;;;;;;;;;;;22.20;30.90;;;;;;5069397;28;20019;-62
2022/02/12 04:04:05;;;;;;;;;;;22.20;31.00;;;;;;5089282;28;20015;-62
2022/02/12 04:06:31;;;;;;;;;;;22.20;30.90;;;;;;5087906;28;20400;-62
2022/02/12 04:08:58;;;;;;;;;;;22.20;30.90;;;;;;5088558;28;20007;-62
2022/02/12 04:11:25;;;;;;;;;;;22.20;31.00;;;;;;5087963;28;20001;-62
2022/02/12 04:13:52;;;;;;;;;;;22.20;30.90;;;;;;5070515;28;20015;-62
2022/02/12 04:16:19;;;;;;;;;;;22.20;31.00;;;;;;5087837;28;20022;-62
2022/02/12 04:21:51;;;;;;;;;;;22.20;30.90;;;;;;5087295;28;20019;-62
2022/02/12 04:24:17;;;;;;;;;;;22.20;31.00;;;;;;5088814;28;19967;-62
2022/02/12 04:26:44;;;;;;;;;;;22.10;30.90;;;;;;5086958;28;20148;-61
2022/02/12 04:29:11;;;;;;;;;;;22.10;30.90;;;;;;5088938;28;20396;-62
2022/02/12 04:31:38;;;;;;;;;;;22.20;30.90;;;;;;5086895;28;19971;-62
2022/02/12 04:34:05;;;;;;;;;;;22.10;30.90;;;;;;5088907;28;20452;-62
2022/02/12 04:36:32;;;;;;;;;;;22.20;30.90;;;;;;5086461;28;20026;-62
2022/02/12 04:39:00;;;;;;;;;;;22.10;30.90;;;;;;5087583;28;20377;-62
2022/02/12 04:41:28;;;;;;;;;;;22.10;30.90;;;;;;5087157;28;20315;-62
2022/02/12 04:44:14;;;;;;;;;;;22.10;30.90;;;;;;5087853;28;19936;-62
2022/02/12 04:46:41;;;;;;;;;;;22.10;30.90;;;;;;5086495;28;19924;-62
2022/02/12 04:49:08;;;;;;;;;;;22.10;30.90;;;;;;5088164;28;20000;-62
2022/02/12 04:51:35;;;;;;;;;;;22.10;30.90;;;;;;5086489;28;19971;-62
2022/02/12 04:54:01;;;;;;;;;;;22.10;30.90;;;;;;5087685;28;20444;-62
2022/02/12 04:56:28;;;;;;;;;;;22.10;30.90;;;;;;5086423;28;19924;-62
2022/02/12 04:58:55;;;;;;;;;;;22.10;30.90;;;;;;5088140;28;19975;-62
2022/02/12 05:01:23;;;;;;;;;;;22.10;30.90;;;;;;5086706;28;19924;-62
2022/02/12 05:03:50;;;;;;;;;;;22.10;30.90;;;;;;5088057;28;20389;-62
2022/02/12 05:06:18;;;;;;;;;;;22.10;30.90;;;;;;5086849;28;19924;-62
2022/02/12 05:08:45;;;;;;;;;;;22.10;30.90;;;;;;5087131;28;19975;-62
2022/02/12 05:11:13;;;;;;;;;;;22.10;30.90;;;;;;5087335;28;20346;-62
2022/02/12 05:13:40;;;;;;;;;;;22.10;30.90;;;;;;5087083;28;19931;-62
2022/02/12 05:16:07;;;;;;;;;;;22.10;30.90;;;;;;5087003;28;20423;-62
2022/02/12 05:21:42;;;;;;;;;;;22.10;30.90;;;;;;5086065;28;19985;-61
2022/02/12 05:24:09;;;;;;;;;;;22.10;30.90;;;;;;5088128;28;19973;-62
2022/02/12 05:26:36;;;;;;;;;;;22.10;30.90;;;;;;5085797;28;19980;-62
2022/02/12 05:29:03;;;;;;;;;;;22.10;30.90;;;;;;5087658;28;19979;-63
2022/02/12 05:31:30;;;;;;;;;;;22.00;30.80;;;;;;5067799;28;19924;-61
2022/02/12 05:33:57;;;;;;;;;;;22.00;30.90;;;;;;5087476;28;20281;-62
2022/02/12 05:36:24;;;;;;;;;;;22.10;30.90;;;;;;5086209;28;19970;-61
2022/02/12 05:38:51;;;;;;;;;;;22.10;30.90;;;;;;5069252;28;19974;-62
2022/02/12 05:41:18;;;;;;;;;;;22.10;30.90;;;;;;5086674;28;20015;-61
2022/02/12 05:46:49;;;;;;;;;;;22.10;30.90;;;;;;5086100;28;20243;-62
2022/02/12 05:49:16;;;;;;;;;;;22.10;31.00;;;;;;5089398;28;19924;-61
2022/02/12 05:51:43;;;;;;;;;;;22.10;31.00;;;;;;5090302;28;19982;-61
2022/02/12 05:54:10;;;;;;;;;;;22.10;31.00;;;;;;5091347;28;20376;-61
2022/02/12 05:56:37;;;;;;;;;;;22.10;31.00;;;;;;5089684;28;19928;-63
2022/02/12 05:59:08;;;;;;;;;;;22.10;31.00;;;;;;5091400;28;20006;-62
2022/02/12 06:01:35;;;;;;;;;;;22.10;31.10;;;;;;5089674;28;19946;-61
2022/02/12 06:04:02;;;;;;;;;;;22.10;30.90;;;;;;5091425;28;19959;-62
2022/02/12 06:06:29;;;;;;;;;;;22.10;30.90;;;;;;5090349;28;19924;-61
2022/02/12 06:08:56;;;;;;;;;;;22.10;30.90;;;;;;5090981;28;19924;-61
2022/02/12 06:11:23;;;;;;;;;;;22.00;30.50;;;;;;5091922;28;20452;-62
2022/02/12 06:13:52;;;;;;;;;;;22.10;30.40;;;;;;5090416;28;20005;-62
2022/02/12 06:16:22;;;;;;;;;;;22.00;30.40;;;;;;5090357;28;20022;-62
2022/02/12 06:21:41;;;;;;;;;;;22.00;30.30;;;;;;5089755;28;20408;-61
2022/02/12 06:24:08;;;;;;;;;;;22.00;30.20;;;;;;5090563;28;20296;-61
2022/02/12 06:26:38;;;;;;;;;;;22.10;30.20;;;;;;5089360;28;19930;-61
2022/02/12 06:29:05;;;;;;;;;;;22.10;30.10;;;;;;5090735;28;19931;-62
2022/02/12 06:31:32;;;;;;;;;;;22.10;30.00;;;;;;5089074;28;20358;-62
2022/02/12 06:33:59;;;;;;;;;;;22.10;30.00;;;;;;5090477;28;19928;-61
2022/02/12 06:36:26;;;;;;;;;;;22.10;30.00;;;;;;5089693;28;19934;-63
2022/02/12 06:38:52;;;;;;;;;;;22.20;29.90;;;;;;5090138;28;20396;-62
2022/02/12 06:41:20;;;;;;;;;;;22.20;29.90;;;;;;5089968;28;20023;-61
2022/02/12 06:46:51;;;;;;;;;;;22.30;29.70;;;;;;5088901;28;19976;-62
2022/02/12 06:49:18;;;;;;;;;;;22.30;29.60;;;;;;5090731;28;19963;-61
2022/02/12 06:51:45;;;;;;;;;;;22.40;29.60;;;;;;5089151;28;20229;-61
2022/02/12 06:54:12;;;;;;;;;;;22.40;29.50;;;;;;5090067;28;19924;-61
2022/02/12 06:56:39;;;;;;;;;;;22.50;29.50;;;;;;5088227;28;20443;-61
2022/02/12 06:59:06;;;;;;;;;;;22.50;29.40;;;;;;5090209;28;20010;-62
2022/02/12 07:01:33;;;;;;;;;;;22.50;29.30;;;;;;5087922;28;20172;-61
2022/02/12 07:04:00;;;;;;;;;;;22.60;29.30;;;;;;5090052;28;19975;-61
2022/02/12 07:06:27;;;;;;;;;;;22.70;29.30;;;;;;5089053;28;19986;-62
2022/02/12 07:08:54;;;;;;;;;;;22.70;29.20;;;;;;5089893;28;19963;-62
2022/02/12 07:11:21;;;;;;;;;;;22.80;29.10;;;;;;5088781;28;19978;-62
2022/02/12 07:13:48;;;;;;;;;;;22.80;29.10;;;;;;5090001;28;19927;-61
2022/02/12 07:16:14;;;;;;;;;;;22.80;29.00;;;;;;5089140;28;19978;-62
2022/02/12 07:21:59;;;;;;;;;;;22.90;28.90;;;;;;5088586;28;20021;-61
2022/02/12 07:24:26;;;;;;;;;;;23.00;28.80;;;;;;5090120;28;20027;-61
2022/02/12 07:26:53;;;;;;;;;;;23.10;28.80;;;;;;5087911;28;19971;-62
2022/02/12 07:29:20;;;;;;;;;;;23.10;28.70;;;;;;5090446;28;20010;-61
2022/02/12 07:31:47;;;;;;;;;;;23.20;28.70;;;;;;5088214;28;20354;-61
2022/02/12 07:34:15;;;;;;;;;;;23.20;28.60;;;;;;5089893;28;20342;-62
2022/02/12 07:36:42;;;;;;;;;;;23.30;28.50;;;;;;5088331;28;20464;-61
2022/02/12 07:39:10;;;;;;;;;;;23.30;28.50;;;;;;5089704;28;19924;-61
2022/02/12 07:41:37;;;;;;;;;;;23.40;28.50;;;;;;5088474;28;20369;-61
2022/02/12 07:44:04;;;;;;;;;;;23.40;28.30;;;;;;5089157;28;19942;-62
2022/02/12 07:46:31;;;;;;;;;;;23.50;28.30;;;;;;5088160;28;19978;-62
2022/02/12 07:48:58;;;;;;;;;;;23.50;28.30;;;;;;5089349;28;19924;-62
2022/02/12 07:51:25;;;;;;;;;;;23.50;28.30;;;;;;5088213;28;19935;-61
2022/02/12 07:56:41;;;;;;;;;;;23.50;28.20;;;;;;5087229;28;19928;-61
2022/02/12 07:59:08;;;;;;;;;;;23.40;28.20;;;;;;5089320;28;20476;-62
2022/02/12 08:01:35;;;;;;;;;;;23.40;28.10;;;;;;5087703;28;20019;-62
2022/02/12 08:04:02;;;;;;;;;;;23.40;28.10;;;;;;5089031;28;19967;-62
2022/02/12 08:09:18;;;;;;;;;;;23.40;28.10;;;;;;5088911;28;19931;-62
2022/02/12 08:11:48;;;;;;;;;;;23.40;28.10;;;;;;5087496;28;20219;-61
2022/02/12 08:14:15;;;;;;;;;;;23.40;28.00;;;;;;5089123;28;20003;-61
2022/02/12 08:16:44;;;;;;;;;;;23.40;28.00;;;;;;5086992;28;20207;-61
2022/02/12 08:19:11;;;;;;;;;;;23.40;28.00;;;;;;5089052;28;20035;-62
2022/02/12 08:21:38;;;;;;;;;;;23.40;28.00;;;;;;5086874;28;20397;-62
2022/02/12 08:24:05;;;;;;;;;;;23.40;28.00;;;;;;5088797;28;19955;-62
2022/02/12 08:26:32;;;;;;;;;;;23.40;28.00;;;;;;5087324;28;19924;-61
2022/02/12 08:29:14;;;;;;;;;;;23.40;28.00;;;;;;5088562;28;19959;-61
2022/02/12 08:31:41;;;;;;;;;;;23.40;28.00;;;;;;5086489;28;19997;-62
2022/02/12 08:34:08;;;;;;;;;;;23.40;28.40;;;;;;5088746;28;19928;-62
2022/02/12 08:36:35;;;;;;;;;;;23.40;28.00;;;;;;5086543;28;19970;-62
2022/02/12 08:39:02;;;;;;;;;;;23.40;27.90;;;;;;5087973;28;19924;-62
2022/02/12 08:41:29;;;;;;;;;;;23.40;27.90;;;;;;5087137;28;19924;-61
2022/02/12 08:43:56;;;;;;;;;;;23.40;27.90;;;;;;5088081;28;19924;-61
2022/02/12 08:46:23;;;;;;;;;;;23.40;27.90;;;;;;5087068;28;19924;-62
2022/02/12 08:48:50;;;;;;;;;;;23.40;27.90;;;;;;5088307;28;20014;-61
2022/02/12 08:51:17;;;;;;;;;;;23.40;27.90;;;;;;5086827;28;19985;-61
2022/02/12 08:56:48;;;;;;;;;;;23.50;28.00;;;;;;5086090;28;20313;-62
2022/02/12 08:59:15;;;;;;;;;;;23.40;28.00;;;;;;5088619;28;20302;-62
2022/02/12 09:02:02;;;;;;;;;;;23.40;28.00;;;;;;5086377;28;20304;-61
2022/02/12 09:04:29;;;;;;;;;;;23.40;28.00;;;;;;5088052;28;19982;-61
2022/02/12 09:06:56;;;;;;;;;;;23.40;28.00;;;;;;5086420;28;19979;-62
2022/02/12 09:09:23;;;;;;;;;;;23.40;28.00;;;;;;5088153;28;19972;-62
2022/02/12 09:11:50;;;;;;;;;;;23.40;28.00;;;;;;5086606;28;20077;-61
2022/02/12 09:14:17;;;;;;;;;;;23.40;28.00;;;;;;5087871;28;20107;-62
2022/02/12 09:16:44;;;;;;;;;;;23.40;28.00;;;;;;5086205;28;19986;-62
2022/02/12 09:19:11;;;;;;;;;;;23.40;28.00;;;;;;5088125;28;20383;-62
2022/02/12 09:21:38;;;;;;;;;;;23.40;28.00;;;;;;5086104;28;19991;-61
2022/02/12 09:24:07;;;;;;;;;;;23.50;28.00;;;;;;5087562;28;19925;-61
2022/02/12 09:26:34;;;;;;;;;;;23.50;27.90;;;;;;5086153;28;19967;-61
2022/02/12 09:29:16;;;;;;;;;;;23.50;27.90;;;;;;5087852;28;19924;-61
2022/02/12 09:31:43;;;;;;;;;;;23.50;27.90;;;;;;5085968;28;20413;-62
2022/02/12 09:34:10;;;;;;;;;;;23.50;27.90;;;;;;5087544;28;19924;-62
2022/02/12 09:36:39;;;;;;;;;;;23.50;27.90;;;;;;5064372;28;20061;-62
2022/02/12 09:39:07;;;;;;;;;;;23.50;27.80;;;;;;5087869;28;19950;-62
2022/02/12 09:41:35;;;;;;;;;;;23.50;27.80;;;;;;5084907;28;19924;-61
2022/02/12 09:44:03;;;;;;;;;;;23.50;27.80;;;;;;5087393;28;20055;-62
2022/02/12 09:46:50;;;;;;;;;;;23.50;27.80;;;;;;5086186;28;20296;-62
2022/02/12 09:49:17;;;;;;;;;;;23.50;27.80;;;;;;5072922;28;19971;-62
2022/02/12 09:51:44;;;;;;;;;;;23.50;27.80;;;;;;5070009;28;20206;-61
2022/02/12 09:54:11;;;;;;;;;;;23.50;27.70;;;;;;5068822;28;19966;-62
2022/02/12 09:56:40;;;;;;;;;;;23.50;27.70;;;;;;5084187;28;20050;-62
2022/02/12 09:59:07;;;;;;;;;;;23.50;27.70;;;;;;5084791;28;19969;-61
2022/02/12 10:01:37;;;;;;;;;;;23.60;27.70;;;;;;5086206;28;20007;-62
2022/02/12 10:04:16;;;;;;;;;;;23.50;27.70;;;;;;5087475;28;19970;-61
2022/02/12 10:06:44;;;;;;;;;;;23.50;27.60;;;;;;5085848;28;20018;-61
2022/02/12 10:09:11;;;;;;;;;;;23.50;27.60;;;;;;5087467;28;20003;-61
2022/02/12 10:11:49;;;;;;;;;;;23.60;27.70;;;;;;5085616;28;20475;-61
2022/02/12 10:14:17;;;;;;;;;;;23.60;27.70;;;;;;5087184;28;19924;-62
2022/02/12 10:16:47;;;;;;;;;;;23.60;27.60;;;;;;5067371;28;20024;-62
2022/02/12 10:19:14;;;;;;;;;;;23.60;27.50;;;;;;5087754;28;19928;-62
2022/02/12 10:22:01;;;;;;;;;;;23.60;27.50;;;;;;5082871;28;19955;-62
2022/02/12 10:24:48;;;;;;;;;;;23.60;27.50;;;;;;5086520;28;19979;-62
2022/02/12 10:27:15;;;;;;;;;;;23.60;27.50;;;;;;5085144;28;19931;-62
2022/02/12 10:29:45;;;;;;;;;;;23.60;27.40;;;;;;5087680;28;19924;-62
2022/02/12 10:32:16;;;;;;;;;;;23.60;27.40;;;;;;5083437;28;19924;-62
2022/02/12 10:34:44;;;;;;;;;;;23.60;27.40;;;;;;5088070;28;20015;-62
2022/02/12 10:37:13;;;;;;;;;;;23.60;27.40;;;;;;5089469;28;20007;-62
2022/02/12 10:39:52;;;;;;;;;;;23.60;27.40;;;;;;5090999;28;19985;-62
2022/02/12 10:42:21;;;;;;;;;;;23.60;27.30;;;;;;5089404;28;19928;-62
2022/02/12 10:44:49;;;;;;;;;;;23.70;27.30;;;;;;5088815;28;19924;-62
2022/02/12 10:47:17;;;;;;;;;;;23.70;27.30;;;;;;5088275;28;19986;-62
2022/02/12 10:49:45;;;;;;;;;;;23.70;27.30;;;;;;5090753;28;20019;-62
2022/02/12 10:52:12;;;;;;;;;;;23.70;27.30;;;;;;5086382;28;20011;-62
2022/02/12 10:54:46;;;;;;;;;;;23.70;27.30;;;;;;5090537;28;19924;-62
2022/02/12 10:57:14;;;;;;;;;;;23.70;27.20;;;;;;5088712;28;20450;-62
2022/02/12 10:59:43;;;;;;;;;;;23.80;27.20;;;;;;5089261;28;20036;-62
2022/02/12 11:02:11;;;;;;;;;;;23.80;27.10;;;;;;5085953;28;19928;-62
2022/02/12 11:04:38;;;;;;;;;;;23.80;27.10;;;;;;5090540;28;19964;-62
2022/02/12 11:07:06;;;;;;;;;;;23.80;27.00;;;;;;5088922;28;20472;-62
2022/02/12 11:09:33;;;;;;;;;;;23.80;27.00;;;;;;5089066;28;19977;-62
2022/02/12 11:12:04;;;;;;;;;;;23.70;27.00;;;;;;5084142;28;20638;-62
2022/02/12 11:14:33;;;;;;;;;;;23.80;26.90;;;;;;5087451;28;20095;-62
2022/02/12 11:17:01;;;;;;;;;;;23.80;26.90;;;;;;5088341;28;19973;-62
2022/02/12 11:19:28;;;;;;;;;;;23.80;26.90;;;;;;5089817;28;20011;-63
2022/02/12 11:21:56;;;;;;;;;;;23.80;26.90;;;;;;5087620;28;20215;-62
2022/02/12 11:24:34;;;;;;;;;;;23.80;26.90;;;;;;5072044;28;20361;-62
2022/02/12 11:27:13;;;;;;;;;;;23.80;26.90;;;;;;5087721;28;20111;-62
2022/02/12 11:29:41;;;;;;;;;;;23.80;26.80;;;;;;5089730;28;20007;-62
2022/02/12 11:32:13;;;;;;;;;;;23.80;26.80;;;;;;5088195;28;20024;-62
2022/02/12 11:34:42;;;;;;;;;;;23.80;26.80;;;;;;5088864;28;20412;-62
2022/02/12 11:37:13;;;;;;;;;;;23.80;26.80;;;;;;5088306;28;20007;-62
2022/02/12 11:39:40;;;;;;;;;;;23.70;26.80;;;;;;5071650;28;20106;-62
2022/02/12 11:42:10;;;;;;;;;;;23.80;26.80;;;;;;5086476;28;20518;-62
2022/02/12 11:44:45;;;;;;;;;;;23.80;26.80;;;;;;5088944;28;19974;-63
2022/02/12 11:47:13;;;;;;;;;;;23.80;26.80;;;;;;5086842;28;19925;-62
2022/02/12 11:49:41;;;;;;;;;;;23.80;26.70;;;;;;5089424;28;20007;-62
2022/02/12 11:52:27;;;;;;;;;;;23.80;26.60;;;;;;5087199;28;19924;-62
2022/02/12 11:54:57;;;;;;;;;;;23.90;26.70;;;;;;5089745;28;19954;-62
2022/02/12 11:57:45;;;;;;;;;;;23.90;26.60;;;;;;5069417;28;19929;-62
2022/02/12 12:00:31;;;;;;;;;;;23.90;26.50;;;;;;5073890;28;19924;-62
2022/02/12 12:03:06;;;;;;;;;;;23.90;26.50;;;;;;5072470;28;19931;-62
2022/02/12 12:05:32;;;;;;;;;;;23.90;26.40;;;;;;5088787;28;19971;-63
2022/02/12 12:08:08;;;;;;;;;;;23.90;26.30;;;;;;5087666;28;19979;-62
2022/02/12 12:10:55;;;;;;;;;;;23.90;26.30;;;;;;5089261;28;20052;-62
2022/02/12 12:13:42;;;;;;;;;;;23.90;26.30;;;;;;5072438;28;20212;-63
2022/02/12 12:16:14;;;;;;;;;;;23.90;26.40;;;;;;5072721;28;19928;-62
2022/02/12 12:22:03;;;;;;;;;;;23.90;26.30;;;;;;5086978;28;20385;-62
2022/02/12 12:24:30;;;;;;;;;;;23.90;26.30;;;;;;5089127;28;20343;-62
2022/02/12 12:26:58;;;;;;;;;;;23.90;26.30;;;;;;5087469;28;19978;-62
2022/02/12 12:32:14;;;;;;;;;;;23.90;26.30;;;;;;5087484;28;19999;-62
2022/02/12 12:34:58;;;;;;;;;;;23.90;26.20;;;;;;5088626;28;20594;-64
2022/02/12 12:37:25;;;;;;;;;;;23.90;26.20;;;;;;5086651;28;19971;-62
2022/02/12 12:39:57;;;;;;;;;;;23.90;26.20;;;;;;5088624;28;19928;-62
2022/02/12 12:42:24;;;;;;;;;;;23.90;26.10;;;;;;5086846;28;19993;-62
2022/02/12 12:44:59;;;;;;;;;;;23.90;26.00;;;;;;5088834;28;20076;-62
2022/02/12 12:47:29;;;;;;;;;;;23.90;26.10;;;;;;5086458;28;20369;-62
2022/02/12 12:49:57;;;;;;;;;;;23.90;26.00;;;;;;5088563;28;20381;-62
2022/02/12 12:52:26;;;;;;;;;;;23.90;26.00;;;;;;5086052;28;20023;-62
2022/02/12 12:54:57;;;;;;;;;;;23.90;26.00;;;;;;5088153;28;19924;-62
2022/02/12 12:57:28;;;;;;;;;;;23.90;26.00;;;;;;5086868;28;20034;-62
2022/02/12 12:59:57;;;;;;;;;;;23.90;26.00;;;;;;5087244;28;20382;-62
2022/02/12 13:02:25;;;;;;;;;;;23.90;25.90;;;;;;5087006;28;19928;-62
2022/02/12 13:04:53;;;;;;;;;;;23.90;25.90;;;;;;5087966;28;19967;-63
2022/02/12 13:07:22;;;;;;;;;;;23.90;25.80;;;;;;5086580;28;20114;-62
2022/02/12 13:09:49;;;;;;;;;;;23.90;25.80;;;;;;5088515;28;19924;-63
2022/02/12 13:12:31;;;;;;;;;;;23.90;25.80;;;;;;5067960;28;20148;-62
2022/02/12 13:14:59;;;;;;;;;;;23.90;25.70;;;;;;5088010;28;20180;-62
2022/02/12 13:17:26;;;;;;;;;;;23.90;25.70;;;;;;5086065;28;19935;-62
2022/02/12 13:19:57;;;;;;;;;;;23.90;25.70;;;;;;5087998;28;20156;-62
2022/02/12 13:22:26;;;;;;;;;;;23.90;25.70;;;;;;5086466;28;19967;-62
2022/02/12 13:24:56;;;;;;;;;;;23.90;25.70;;;;;;5088013;28;19990;-62
2022/02/12 13:27:27;;;;;;;;;;;23.80;25.70;;;;;;5085452;28;20410;-62
2022/02/12 13:30:01;;;;;;;;;;;23.90;25.60;;;;;;5087055;28;19975;-62
2022/02/12 13:32:35;;;;;;;;;;;23.80;25.60;;;;;;5086477;28;19959;-63
2022/02/12 13:35:06;;;;;;;;;;;23.90;25.60;;;;;;5087392;28;20031;-62
2022/02/12 13:37:33;;;;;;;;;;;23.90;25.60;;;;;;5086137;28;20002;-62
2022/02/12 13:40:02;;;;;;;;;;;23.80;25.50;;;;;;5087433;28;19958;-63
2022/02/12 13:42:29;;;;;;;;;;;23.90;25.50;;;;;;5086049;28;20027;-62
2022/02/12 13:45:00;;;;;;;;;;;23.80;25.50;;;;;;5087746;28;20015;-63
2022/02/12 13:47:27;;;;;;;;;;;23.90;25.50;;;;;;5086346;28;19981;-62
2022/02/12 13:49:54;;;;;;;;;;;23.80;25.40;;;;;;5087970;28;19924;-63
2022/02/12 13:52:22;;;;;;;;;;;23.80;25.40;;;;;;5067214;28;19927;-62
2022/02/12 13:55:09;;;;;;;;;;;23.80;25.40;;;;;;5087878;28;20015;-62
2022/02/12 13:57:36;;;;;;;;;;;23.80;25.40;;;;;;5086175;28;20163;-62
2022/02/12 14:00:05;;;;;;;;;;;23.80;25.40;;;;;;5087415;28;19969;-62
2022/02/12 14:02:32;;;;;;;;;;;23.80;25.40;;;;;;5086027;28;19963;-62
2022/02/12 14:04:59;;;;;;;;;;;23.80;25.40;;;;;;5069694;28;20461;-62
2022/02/12 14:07:26;;;;;;;;;;;23.80;25.40;;;;;;5085679;28;19989;-62
2022/02/12 14:09:53;;;;;;;;;;;23.80;25.40;;;;;;5088242;28;19972;-62
2022/02/12 14:12:21;;;;;;;;;;;23.80;25.40;;;;;;5089642;28;19972;-62
2022/02/12 14:14:48;;;;;;;;;;;23.80;25.40;;;;;;5091417;28;19983;-62
2022/02/12 14:17:15;;;;;;;;;;;23.80;25.30;;;;;;5089201;28;19928;-62
2022/02/12 14:19:41;;;;;;;;;;;23.80;25.30;;;;;;5091864;28;20369;-62
2022/02/12 14:22:08;;;;;;;;;;;23.80;25.20;;;;;;5089234;28;20404;-62
2022/02/12 14:24:36;;;;;;;;;;;23.80;25.10;;;;;;5073553;28;19971;-62
2022/02/12 14:27:03;;;;;;;;;;;23.80;25.10;;;;;;5089483;28;19975;-62
2022/02/12 14:29:33;;;;;;;;;;;23.80;25.10;;;;;;5090350;28;19924;-62
2022/02/12 14:32:00;;;;;;;;;;;23.80;25.10;;;;;;5089261;28;20418;-64
2022/02/12 14:34:28;;;;;;;;;;;23.80;25.00;;;;;;5091331;28;20092;-62
2022/02/12 14:36:55;;;;;;;;;;;23.80;25.00;;;;;;5089215;28;19924;-62
2022/02/12 14:39:22;;;;;;;;;;;23.80;25.00;;;;;;5090757;28;19944;-62
2022/02/12 14:41:49;;;;;;;;;;;23.80;25.00;;;;;;5088843;28;20022;-62
2022/02/12 14:44:18;;;;;;;;;;;23.70;25.00;;;;;;5090989;28;19967;-62
2022/02/12 14:46:45;;;;;;;;;;;23.70;25.00;;;;;;5088756;28;20032;-62
2022/02/12 14:49:15;;;;;;;;;;;23.70;25.00;;;;;;5090801;28;19943;-62
2022/02/12 14:51:42;;;;;;;;;;;23.70;25.00;;;;;;5089490;28;20364;-62
2022/02/12 14:54:09;;;;;;;;;;;23.70;25.00;;;;;;5090193;28;20116;-62
2022/02/12 14:56:36;;;;;;;;;;;23.70;25.00;;;;;;5088961;28;19924;-62
2022/02/12 14:59:03;;;;;;;;;;;23.70;25.00;;;;;;5090012;28;19931;-64
2022/02/12 15:01:30;;;;;;;;;;;23.60;25.00;;;;;;5088443;28;20022;-62
2022/02/12 15:03:57;;;;;;;;;;;23.60;25.00;;;;;;5090363;28;19977;-62
2022/02/12 15:06:25;;;;;;;;;;;23.60;25.00;;;;;;5088851;28;20014;-62
2022/02/12 15:08:52;;;;;;;;;;;23.60;24.90;;;;;;5089778;28;20016;-62
2022/02/12 15:11:20;;;;;;;;;;;23.60;24.90;;;;;;5088440;28;19928;-62
2022/02/12 15:14:19;;;;;;;;;;;23.60;24.90;;;;;;5089689;28;19969;-62
2022/02/12 15:16:47;;;;;;;;;;;23.60;24.90;;;;;;5088909;28;19972;-62
2022/02/12 15:19:15;;;;;;;;;;;23.50;24.90;;;;;;5090229;28;19924;-62
2022/02/12 15:21:42;;;;;;;;;;;23.60;24.90;;;;;;5088105;28;19959;-62